Time;durP1;ratioP1;P1;durP2;ratioP2;P2;SDS_P1;SDS_P2;PMS_P1;PMS_P2;Temp;Humidity;BMP_temperature;BMP_pressure;BME280_temperature;BME280_humidity;BME280_pressure;Samples;Min_cycle;Max_cycle;Signal;HPM_P1;HPM_P2
2021/10/05 00:01:35;;;;;;;;;2.00;1.00;;;;;22.44;44.91;100616.78;5076601;28;45201;-53
2021/10/05 00:04:01;;;;;;;;;1.25;1.25;;;;;22.44;44.67;100613.31;5076909;28;45287;-52
2021/10/05 00:06:27;;;;;;;;;2.25;1.00;;;;;22.42;44.83;100602.88;5076066;28;45386;-52
2021/10/05 00:08:53;;;;;;;;;1.25;1.25;;;;;22.42;44.85;100602.88;5076657;28;46409;-49
2021/10/05 00:11:18;;;;;;;;;1.00;1.00;;;;;22.41;44.81;100606.47;5076506;28;45409;-54
2021/10/05 00:13:44;;;;;;;;;1.00;1.00;;;;;22.42;44.94;100602.00;5076816;28;45381;-53
2021/10/05 00:16:09;;;;;;;;;2.25;1.00;;;;;22.40;44.75;100594.16;5092519;27;45277;-50
2021/10/05 00:18:36;;;;;;;;;2.25;2.00;;;;;22.40;44.67;100594.16;5076490;28;45626;-50
2021/10/05 00:21:02;;;;;;;;;2.25;2.00;;;;;22.39;44.75;100593.31;5076568;28;45341;-50
2021/10/05 00:23:28;;;;;;;;;1.25;1.00;;;;;22.38;44.87;100585.50;5076790;28;45271;-52
2021/10/05 00:25:53;;;;;;;;;1.25;1.25;;;;;22.38;45.27;100590.78;5076988;28;45232;-48
2021/10/05 00:28:18;;;;;;;;;3.00;2.00;;;;;22.36;44.97;100587.38;5076396;28;45266;-52
2021/10/05 00:30:44;;;;;;;;;2.00;2.00;;;;;22.36;44.88;100592.66;5076538;28;45325;-52
2021/10/05 00:33:09;;;;;;;;;1.00;1.00;;;;;22.36;44.84;100582.09;5076521;28;45719;-50
2021/10/05 00:35:34;;;;;;;;;1.25;1.00;;;;;22.35;45.17;100581.28;5076596;28;45255;-54
2021/10/05 00:38:00;;;;;;;;;3.00;1.75;;;;;22.34;45.13;100578.72;5076536;28;45338;-53
2021/10/05 00:40:27;;;;;;;;;1.00;1.00;;;;;22.33;44.98;100572.59;5074926;28;45665;-51
2021/10/05 00:42:52;;;;;;;;;2.00;1.75;;;;;22.34;45.09;100579.59;5092187;27;45261;-51
2021/10/05 00:45:18;;;;;;;;;2.00;2.00;;;;;22.33;45.41;100572.59;5076629;28;45455;-51
2021/10/05 00:47:43;;;;;;;;;1.00;1.00;;;;;22.33;45.06;100566.47;5076038;28;45409;-51
2021/10/05 00:50:14;;;;;;;;;1.00;1.00;;;;;22.32;45.11;100559.53;5076290;28;45398;-53
2021/10/05 00:52:41;;;;;;;;;1.00;1.00;;;;;22.31;45.25;100553.38;5076185;28;45288;-50
2021/10/05 00:55:06;;;;;;;;;1.75;1.00;;;;;22.32;45.34;100555.06;5076329;28;45358;-45
2021/10/05 00:57:32;;;;;;;;;1.25;1.25;;;;;22.31;44.71;100555.19;5078513;28;46126;-49
2021/10/05 00:59:57;;;;;;;;;2.00;2.00;;;;;22.30;45.52;100550.84;5079549;28;45224;-54
2021/10/05 01:02:23;;;;;;;;;1.50;1.50;;;;;22.31;45.11;100555.19;5080041;28;45498;-52
2021/10/05 01:04:48;;;;;;;;;1.50;1.00;;;;;22.29;44.94;100534.16;5079991;28;45505;-53
2021/10/05 01:07:17;;;;;;;;;1.00;1.00;;;;;22.29;45.18;100542.06;5079602;28;45413;-53
2021/10/05 01:09:43;;;;;;;;;0.25;0.25;;;;;22.28;44.99;100531.63;5079628;28;45634;-54
2021/10/05 01:12:09;;;;;;;;;2.00;1.00;;;;;22.28;45.21;100534.25;5079703;28;45261;-50
2021/10/05 01:14:34;;;;;;;;;3.00;2.00;;;;;22.27;45.13;100530.75;5079820;28;45433;-53
2021/10/05 01:17:01;;;;;;;;;1.00;1.00;;;;;22.27;45.20;100535.22;5079608;28;46234;-45
2021/10/05 01:19:29;;;;;;;;;1.00;1.00;;;;;22.27;45.09;100520.19;5079515;28;45716;-47
2021/10/05 01:21:55;;;;;;;;;2.00;1.75;;;;;22.25;45.27;100514.22;5078102;27;45504;-50
2021/10/05 01:24:22;;;;;;;;;1.00;1.00;;;;;22.23;45.50;100509.00;5078233;28;45320;-47
2021/10/05 01:26:51;;;;;;;;;3.00;0.00;;;;;22.24;45.40;100505.44;5079258;27;45351;-46
2021/10/05 01:29:19;;;;;;;;;1.25;1.25;;;;;22.24;45.39;100497.50;5079407;28;45251;-48
2021/10/05 01:31:47;;;;;;;;;1.25;1.25;;;;;22.23;45.21;100495.81;5079154;28;45409;-46
2021/10/05 01:34:13;;;;;;;;;0.25;0.25;;;;;22.23;45.26;100490.53;5079531;28;45448;-46
2021/10/05 01:36:39;;;;;;;;;0.50;0.50;;;;;22.21;45.46;100484.50;5078992;28;45469;-50
2021/10/05 01:39:26;;;;;;;;;1.75;1.75;;;;;22.23;45.34;100487.06;5079198;27;45343;-42
2021/10/05 01:41:57;;;;;;;;;1.00;1.00;;;;;22.22;44.94;100475.63;5079164;28;45182;-48
2021/10/05 01:44:23;;;;;;;;;0.50;0.50;;;;;22.22;45.48;100486.19;5079388;28;45354;-48
2021/10/05 01:46:50;;;;;;;;;2.25;1.25;;;;;22.20;45.64;100476.69;5078767;28;46429;-44
2021/10/05 01:49:16;;;;;;;;;0.75;0.75;;;;;22.20;45.45;100472.28;5078972;28;45854;-51
2021/10/05 01:51:42;;;;;;;;;1.00;1.00;;;;;22.21;45.37;100468.66;5079056;28;45379;-54
2021/10/05 01:54:08;;;;;;;;;1.00;1.00;;;;;22.20;45.30;100458.22;5079244;28;45496;-47
2021/10/05 01:56:33;;;;;;;;;1.00;1.00;;;;;22.19;45.28;100449.47;5094686;27;46013;-49
2021/10/05 01:58:59;;;;;;;;;0.50;0.00;;;;;22.19;45.52;100445.97;5078734;28;45415;-52
2021/10/05 02:01:24;;;;;;;;;1.50;1.50;;;;;22.19;45.48;100446.84;5078694;28;45428;-53
2021/10/05 02:03:49;;;;;;;;;1.25;1.00;;;;;22.19;45.43;100444.19;5079053;28;45367;-55
2021/10/05 02:06:16;;;;;;;;;3.00;2.00;;;;;22.18;45.39;100439.00;5078201;28;45609;-52
2021/10/05 02:08:41;;;;;;;;;1.00;1.00;;;;;22.17;45.50;100438.16;5077582;28;45312;-53
2021/10/05 02:11:06;;;;;;;;;0.75;0.75;;;;;22.16;45.56;100433.84;5078755;28;45306;-53
2021/10/05 02:13:32;;;;;;;;;0.75;0.75;;;;;22.17;45.41;100427.63;5079162;28;45382;-55
2021/10/05 02:15:57;;;;;;;;;1.75;0.50;;;;;22.16;45.42;100411.91;5094065;27;48129;-54
2021/10/05 02:18:22;;;;;;;;;1.00;1.00;;;;;22.16;45.51;100407.44;5094165;27;45790;-53
2021/10/05 02:20:48;;;;;;;;;1.00;1.00;;;;;22.16;45.53;100402.16;5078659;28;45472;-49
2021/10/05 02:23:13;;;;;;;;;0.50;0.50;;;;;22.16;45.67;100396.06;5078723;28;45476;-50
2021/10/05 02:25:39;;;;;;;;;0.50;0.50;;;;;22.15;45.44;100405.75;5077025;28;47368;-51
2021/10/05 02:28:04;;;;;;;;;0.25;0.25;;;;;22.14;45.73;100393.50;5078687;28;45310;-49
2021/10/05 02:30:31;;;;;;;;;0.25;0.25;;;;;22.14;45.56;100390.88;5078593;28;45383;-58
2021/10/05 02:32:56;;;;;;;;;1.00;1.00;;;;;22.14;45.60;100385.59;5078764;28;45362;-54
2021/10/05 02:35:21;;;;;;;;;0.50;0.50;;;;;22.13;45.66;100378.63;5078307;28;46281;-54
2021/10/05 02:37:47;;;;;;;;;0.50;0.50;;;;;22.13;45.61;100370.69;5078200;28;45618;-49
2021/10/05 02:40:13;;;;;;;;;2.25;0.00;;;;;22.12;45.57;100369.00;5077177;28;45294;-54
2021/10/05 02:42:39;;;;;;;;;2.50;1.00;;;;;22.13;45.59;100360.13;5078389;28;45489;-50
2021/10/05 02:45:06;;;;;;;;;1.00;1.00;;;;;22.13;45.59;100362.78;5078199;28;46231;-52
2021/10/05 02:47:31;;;;;;;;;0.00;0.00;;;;;22.12;45.74;100353.16;5077911;28;45516;-49
2021/10/05 02:49:57;;;;;;;;;4.50;2.00;;;;;22.13;45.63;100343.47;5078063;28;45424;-55
2021/10/05 02:52:23;;;;;;;;;3.00;1.00;;;;;22.12;45.64;100339.16;5078226;28;45436;-52
2021/10/05 02:54:49;;;;;;;;;2.00;1.00;;;;;22.12;45.75;100328.59;5077949;28;45672;-49
2021/10/05 02:57:20;;;;;;;;;1.00;1.00;;;;;22.11;45.50;100317.16;5077781;27;45456;-55
2021/10/05 02:59:46;;;;;;;;;3.00;1.00;;;;;22.11;45.51;100319.81;5093651;27;45502;-54
2021/10/05 03:02:13;;;;;;;;;0.00;0.00;;;;;22.10;45.71;100318.16;5078160;28;45452;-53
2021/10/05 03:04:39;;;;;;;;;0.00;0.00;;;;;22.11;45.50;100317.16;5093696;27;48024;-47
2021/10/05 03:07:05;;;;;;;;;0.00;0.00;;;;;22.09;45.54;100311.19;5078057;28;45618;-55
2021/10/05 03:09:32;;;;;;;;;0.50;0.50;;;;;22.09;45.67;100311.19;5077879;27;45260;-53
2021/10/05 03:11:57;;;;;;;;;1.00;1.00;;;;;22.10;45.83;100323.44;5077801;28;45498;-54
2021/10/05 03:14:22;;;;;;;;;0.00;0.00;;;;;22.09;45.63;100313.81;5077415;28;46008;-54
2021/10/05 03:16:48;;;;;;;;;0.00;0.00;;;;;22.09;45.65;100306.72;5077448;28;45192;-50
2021/10/05 03:19:13;;;;;;;;;1.75;1.75;;;;;22.07;45.58;100308.63;5077341;28;45370;-50
2021/10/05 03:21:40;;;;;;;;;0.00;0.00;;;;;22.09;45.49;100300.63;5077818;28;45306;-46
2021/10/05 03:24:07;;;;;;;;;1.00;1.00;;;;;22.07;45.42;100292.78;5077753;28;46427;-54
2021/10/05 03:26:32;;;;;;;;;0.75;0.75;;;;;22.06;45.72;100282.34;5076210;28;45521;-50
2021/10/05 03:28:57;;;;;;;;;2.50;1.00;;;;;22.07;45.60;100284.06;5077461;28;45271;-47
2021/10/05 03:31:23;;;;;;;;;0.00;0.00;;;;;22.07;45.83;100286.69;5077679;28;45504;-53
2021/10/05 03:33:48;;;;;;;;;0.75;0.75;;;;;22.06;45.92;100279.72;5077086;28;52555;-50
2021/10/05 03:36:15;;;;;;;;;1.00;1.00;;;;;22.07;45.63;100276.13;5077189;28;45339;-50
2021/10/05 03:38:42;;;;;;;;;3.00;1.00;;;;;22.06;45.73;100263.88;5077449;28;45242;-49
2021/10/05 03:41:09;;;;;;;;;0.25;0.25;;;;;22.05;45.66;100246.38;5077802;28;45304;-53
2021/10/05 03:43:34;;;;;;;;;0.75;0.00;;;;;22.05;45.76;100251.66;5077063;28;47328;-50
2021/10/05 03:46:00;;;;;;;;;0.75;0.75;;;;;22.04;45.78;100248.19;5077180;28;45841;-48
2021/10/05 03:48:25;;;;;;;;;1.25;1.25;;;;;22.04;45.79;100234.13;5075847;28;45462;-50
2021/10/05 03:50:52;;;;;;;;;0.00;0.00;;;;;22.05;45.73;100235.81;5077286;28;45380;-45
2021/10/05 03:53:19;;;;;;;;;0.25;0.25;;;;;22.04;45.77;100236.75;5092138;27;47004;-39
2021/10/05 03:55:49;;;;;;;;;1.00;1.00;;;;;22.03;45.60;100233.28;5076982;28;45364;-50
2021/10/05 03:58:15;;;;;;;;;2.00;0.50;;;;;22.03;45.80;100229.78;5077093;28;45375;-47
2021/10/05 04:00:40;;;;;;;;;1.25;0.50;;;;;22.03;45.70;100222.75;5077322;28;45612;-51
2021/10/05 04:03:05;;;;;;;;;0.00;0.00;;;;;22.03;45.85;100233.28;5076839;28;45610;-47
2021/10/05 04:05:30;;;;;;;;;0.50;0.50;;;;;22.02;45.81;100221.06;5075550;28;45448;-52
2021/10/05 04:07:56;;;;;;;;;0.50;0.50;;;;;22.03;45.58;100221.88;5076980;28;45432;-48
2021/10/05 04:10:21;;;;;;;;;1.00;1.00;;;;;22.01;46.13;100205.31;5077208;28;45534;-49
2021/10/05 04:12:47;;;;;;;;;1.00;1.00;;;;;22.01;45.95;100203.53;5076580;28;46326;-50
2021/10/05 04:15:12;;;;;;;;;1.00;1.00;;;;;22.04;46.15;100205.09;5076801;28;45454;-52
2021/10/05 04:17:38;;;;;;;;;3.25;2.00;;;;;22.06;45.84;100209.31;5077114;28;45456;-53
2021/10/05 04:20:05;;;;;;;;;2.75;2.00;;;;;22.09;46.11;100205.63;5076983;28;45389;-49
2021/10/05 04:22:30;;;;;;;;;3.00;1.00;;;;;22.13;46.27;100193.88;5076582;28;46853;-53
2021/10/05 04:24:55;;;;;;;;;1.00;1.00;;;;;22.18;46.26;100185.63;5076532;28;45258;-48
2021/10/05 04:27:21;;;;;;;;;1.75;1.75;;;;;22.24;46.21;100187.81;5076448;27;45300;-50
2021/10/05 04:29:46;;;;;;;;;1.00;1.00;;;;;22.30;45.75;100176.81;5076882;28;45302;-47
2021/10/05 04:32:12;;;;;;;;;1.50;1.00;;;;;22.36;46.12;100192.22;5080738;28;46180;-42
2021/10/05 04:34:37;;;;;;;;;1.00;1.00;;;;;22.41;45.75;100186.63;5082162;28;45345;-53
2021/10/05 04:37:05;;;;;;;;;1.00;1.00;;;;;22.47;46.05;100172.13;5083405;28;45322;-52
2021/10/05 04:39:31;;;;;;;;;1.00;1.00;;;;;22.51;45.78;100177.06;5099268;27;45533;-56
2021/10/05 04:41:56;;;;;;;;;0.75;0.75;;;;;22.57;45.62;100169.63;5082989;28;45720;-53
2021/10/05 04:44:21;;;;;;;;;1.25;1.00;;;;;22.61;45.68;100174.56;5083228;28;45386;-52
2021/10/05 04:46:47;;;;;;;;;0.75;0.75;;;;;22.66;45.48;100166.28;5083220;28;45310;-48
2021/10/05 04:49:12;;;;;;;;;2.75;1.00;;;;;22.69;45.53;100163.41;5083696;28;45396;-53
2021/10/05 04:51:37;;;;;;;;;1.00;1.00;;;;;22.73;45.63;100162.25;5083036;28;46535;-53
2021/10/05 04:54:03;;;;;;;;;1.00;1.00;;;;;22.76;45.56;100156.75;5083141;28;45752;-53
2021/10/05 04:56:28;;;;;;;;;0.00;0.00;;;;;22.79;45.81;100145.91;5082814;27;45665;-50
2021/10/05 04:58:53;;;;;;;;;2.00;1.00;;;;;22.81;45.80;100141.38;5083161;28;45319;-50
2021/10/05 05:01:19;;;;;;;;;1.00;1.00;;;;;22.85;45.68;100134.03;5082576;28;45366;-52
2021/10/05 05:03:44;;;;;;;;;2.00;1.00;;;;;22.85;45.52;100121.69;5082818;28;45286;-45
2021/10/05 05:06:09;;;;;;;;;1.00;0.00;;;;;22.85;45.40;100112.91;5083378;27;45354;-49
2021/10/05 05:08:35;;;;;;;;;1.25;1.25;;;;;22.85;45.17;100124.31;5083242;28;45587;-53
2021/10/05 05:11:02;;;;;;;;;1.50;1.50;;;;;22.88;45.26;100125.88;5082676;28;45401;-53
2021/10/05 05:13:30;;;;;;;;;2.00;0.75;;;;;22.89;45.43;100122.28;5098452;27;45341;-54
2021/10/05 05:15:55;;;;;;;;;2.25;1.00;;;;;22.90;44.82;100115.19;5082812;28;45432;-54
2021/10/05 05:18:22;;;;;;;;;1.00;1.00;;;;;22.90;45.09;100109.91;5082644;28;45400;-46
2021/10/05 05:20:48;;;;;;;;;1.00;1.00;;;;;22.91;45.42;100111.59;5082478;28;46072;-51
2021/10/05 05:23:14;;;;;;;;;2.25;1.00;;;;;22.90;45.06;100104.63;5082793;28;45243;-52
2021/10/05 05:25:40;;;;;;;;;0.00;0.00;;;;;22.90;45.15;100105.47;5082889;28;45598;-54
2021/10/05 05:28:08;;;;;;;;;0.50;0.50;;;;;22.91;45.22;100095.75;5082798;28;45573;-52
2021/10/05 05:30:34;;;;;;;;;1.75;1.75;;;;;22.90;45.38;100094.91;5082375;27;45481;-53
2021/10/05 05:32:59;;;;;;;;;1.00;1.00;;;;;22.90;45.03;100080.84;5082469;28;45424;-55
2021/10/05 05:35:27;;;;;;;;;0.00;0.00;;;;;22.91;44.96;100074.59;5082452;28;45372;-48
2021/10/05 05:37:53;;;;;;;;;1.00;1.00;;;;;22.90;45.19;100067.63;5082708;28;45670;-52
2021/10/05 05:40:18;;;;;;;;;0.00;0.00;;;;;22.89;45.19;100071.22;5082314;28;45393;-50
2021/10/05 05:42:44;;;;;;;;;1.00;1.00;;;;;22.89;45.20;100076.50;5081697;28;45310;-52
2021/10/05 05:45:10;;;;;;;;;1.00;1.00;;;;;22.87;44.98;100074.00;5079222;28;45220;-50
2021/10/05 05:47:36;;;;;;;;;2.00;1.00;;;;;22.86;44.68;100072.31;5079391;27;45358;-52
2021/10/05 05:50:04;;;;;;;;;1.00;1.00;;;;;22.85;45.40;100074.13;5079167;28;46611;-53
2021/10/05 05:52:31;;;;;;;;;1.25;1.00;;;;;22.84;45.28;100063.66;5078964;28;45472;-53
2021/10/05 05:54:56;;;;;;;;;1.00;1.00;;;;;22.83;45.08;100068.13;5060997;28;45403;-52
2021/10/05 05:57:21;;;;;;;;;1.00;1.00;;;;;22.82;45.15;100057.69;5079249;28;45578;-53
2021/10/05 05:59:47;;;;;;;;;2.00;0.00;;;;;22.80;45.04;100049.84;5078672;28;46563;-45
2021/10/05 06:02:12;;;;;;;;;1.00;1.00;;;;;22.82;45.39;100050.56;5079088;28;45338;-53
2021/10/05 06:04:37;;;;;;;;;1.00;1.00;;;;;22.81;45.42;100046.25;5078748;28;45875;-52
2021/10/05 06:07:04;;;;;;;;;1.00;1.00;;;;;22.81;45.11;100048.06;5078936;28;45289;-53
2021/10/05 06:09:29;;;;;;;;;1.75;1.75;;;;;22.79;45.54;100050.81;5077255;28;47374;-48
2021/10/05 06:12:01;;;;;;;;;2.00;2.00;;;;;22.79;45.25;100050.81;5078690;28;45323;-49
2021/10/05 06:14:28;;;;;;;;;1.25;1.25;;;;;22.80;45.46;100051.66;5078618;27;45524;-52
2021/10/05 06:16:54;;;;;;;;;0.75;0.75;;;;;22.79;45.37;100032.31;5078751;28;45195;-51
2021/10/05 06:19:19;;;;;;;;;2.00;2.00;;;;;22.79;45.09;100040.25;5094104;27;47143;-51
2021/10/05 06:21:45;;;;;;;;;1.50;1.50;;;;;22.79;45.38;100032.31;5078746;28;45273;-54
2021/10/05 06:24:10;;;;;;;;;1.00;1.00;;;;;22.78;45.17;100021.88;5078484;28;45705;-50
2021/10/05 06:26:35;;;;;;;;;2.00;2.00;;;;;22.75;45.18;100015.03;5078879;28;45580;-52
2021/10/05 06:29:01;;;;;;;;;2.00;2.00;;;;;22.72;45.26;100009.13;5078364;28;45396;-51
2021/10/05 06:31:26;;;;;;;;;2.25;2.25;;;;;22.69;45.15;100007.56;5078278;28;45375;-52
2021/10/05 06:33:51;;;;;;;;;2.50;2.50;;;;;22.66;45.13;99998.09;5078609;28;45328;-49
2021/10/05 06:36:17;;;;;;;;;3.25;2.25;;;;;22.64;45.60;100009.75;5078886;28;45223;-52
2021/10/05 06:38:42;;;;;;;;;3.00;3.00;;;;;22.61;45.47;100002.06;5077971;28;45272;-51
2021/10/05 06:41:08;;;;;;;;;2.00;2.00;;;;;22.60;45.43;100000.38;5078133;28;45429;-51
2021/10/05 06:43:33;;;;;;;;;4.50;2.00;;;;;22.57;45.60;100001.47;5078325;28;46015;-51
2021/10/05 06:45:59;;;;;;;;;3.00;3.00;;;;;22.54;45.49;100002.50;5078452;28;45813;-45
2021/10/05 06:48:24;;;;;;;;;2.50;2.00;;;;;22.53;45.42;100000.88;5076872;28;46378;-51
2021/10/05 06:50:49;;;;;;;;;2.00;2.00;;;;;22.50;45.35;100003.72;5078089;28;45405;-45
2021/10/05 06:53:18;;;;;;;;;1.75;1.75;;;;;22.50;45.38;100008.16;5094075;27;45787;-48
2021/10/05 06:55:46;;;;;;;;;3.50;3.50;;;;;22.47;45.78;99988.13;5077642;28;45481;-46
2021/10/05 06:58:12;;;;;;;;;3.00;3.00;;;;;22.47;45.61;100003.13;5077996;28;45452;-45
2021/10/05 07:00:38;;;;;;;;;4.50;2.25;;;;;22.46;46.02;99996.16;5077923;27;45736;-49
2021/10/05 07:03:03;;;;;;;;;7.50;4.25;;;;;22.42;45.84;99995.56;5078062;28;45309;-45
2021/10/05 07:05:28;;;;;;;;;2.50;2.50;;;;;22.44;45.91;99990.97;5078143;28;45285;-45
2021/10/05 07:07:54;;;;;;;;;4.00;3.50;;;;;22.44;45.97;99998.91;5077651;28;46092;-48
2021/10/05 07:10:22;;;;;;;;;6.50;3.25;;;;;22.43;45.91;99983.19;5078024;28;45390;-48
2021/10/05 07:12:48;;;;;;;;;4.50;4.50;;;;;22.42;46.28;99979.72;5078048;27;45348;-52
2021/10/05 07:15:15;;;;;;;;;2.00;2.00;;;;;22.42;46.32;99981.50;5078016;28;45177;-48
2021/10/05 07:17:41;;;;;;;;;2.75;2.75;;;;;22.39;46.21;99969.34;5077385;27;45462;-52
2021/10/05 07:20:07;;;;;;;;;3.50;3.00;;;;;22.39;46.25;99972.00;5077537;28;45351;-51
2021/10/05 07:22:32;;;;;;;;;4.50;3.25;;;;;22.38;46.43;99967.69;5077591;28;45424;-49
2021/10/05 07:24:58;;;;;;;;;5.50;3.75;;;;;22.36;46.18;99977.50;5077847;28;45515;-51
2021/10/05 07:27:24;;;;;;;;;3.25;3.25;;;;;22.35;46.59;99954.69;5077378;28;46425;-52
2021/10/05 07:29:49;;;;;;;;;5.00;4.50;;;;;22.34;46.53;99945.09;5077812;28;45408;-52
2021/10/05 07:32:14;;;;;;;;;3.25;3.25;;;;;22.34;46.76;99945.97;5077589;28;45440;-53
2021/10/05 07:34:40;;;;;;;;;4.00;2.00;;;;;22.32;46.79;99944.41;5077706;28;45299;-55
2021/10/05 07:37:05;;;;;;;;;3.00;3.00;;;;;22.32;46.77;99937.31;5077124;28;46037;-54
2021/10/05 07:39:30;;;;;;;;;3.00;3.00;;;;;22.31;46.77;99925.06;5077294;28;45412;-53
2021/10/05 07:41:56;;;;;;;;;2.00;2.00;;;;;22.30;46.90;99926.03;5077397;28;45321;-49
2021/10/05 07:44:21;;;;;;;;;2.00;2.00;;;;;22.28;46.93;99920.00;5077949;28;45593;-50
2021/10/05 07:46:48;;;;;;;;;2.25;2.25;;;;;22.27;46.79;99922.78;5077462;28;45682;-50
2021/10/05 07:49:13;;;;;;;;;3.00;3.00;;;;;22.27;46.74;99917.50;5077065;28;45720;-50
2021/10/05 07:51:38;;;;;;;;;2.00;2.00;;;;;22.27;46.93;99906.94;5077227;28;45357;-52
2021/10/05 07:54:05;;;;;;;;;2.75;2.75;;;;;22.26;47.03;99905.25;5077465;28;45345;-51
2021/10/05 07:56:31;;;;;;;;;3.00;3.00;;;;;22.23;46.92;99896.63;5076741;28;45437;-52
2021/10/05 07:58:57;;;;;;;;;3.00;3.00;;;;;22.24;46.60;99892.19;5076237;28;45644;-50
2021/10/05 08:01:22;;;;;;;;;5.00;2.50;;;;;22.24;47.28;99879.81;5077330;28;45322;-53
2021/10/05 08:03:47;;;;;;;;;2.50;2.50;;;;;22.20;46.83;99888.97;5076474;28;45566;-53
2021/10/05 08:06:13;;;;;;;;;2.50;2.50;;;;;22.21;47.01;99880.06;5075678;28;46120;-52
2021/10/05 08:08:38;;;;;;;;;2.25;2.00;;;;;22.21;47.12;99882.69;5076976;28;45407;-52
2021/10/05 08:11:03;;;;;;;;;3.00;2.00;;;;;22.21;47.09;99887.97;5077029;28;45457;-53
2021/10/05 08:13:29;;;;;;;;;2.00;2.00;;;;;22.21;47.03;99893.25;5077109;27;45355;-50
2021/10/05 08:15:55;;;;;;;;;3.00;1.50;;;;;22.21;46.88;99889.78;5076577;28;45421;-50
2021/10/05 08:18:20;;;;;;;;;2.00;2.00;;;;;22.17;47.03;99870.72;5077017;28;45336;-49
2021/10/05 08:20:47;;;;;;;;;2.00;2.00;;;;;22.18;47.09;99885.59;5076737;28;45388;-52
2021/10/05 08:23:13;;;;;;;;;2.00;1.50;;;;;22.17;46.80;99894.47;5077033;28;45444;-54
2021/10/05 08:25:39;;;;;;;;;1.25;1.25;;;;;22.17;47.09;99890.97;5076562;28;45680;-50
2021/10/05 08:28:05;;;;;;;;;3.00;2.00;;;;;22.16;47.12;99884.03;5076692;28;45813;-52
2021/10/05 08:30:31;;;;;;;;;2.50;2.00;;;;;22.16;47.26;99881.41;5076776;28;45307;-53
2021/10/05 08:32:57;;;;;;;;;2.50;2.00;;;;;22.15;46.52;99880.53;5076815;28;45210;-51
2021/10/05 08:35:23;;;;;;;;;2.75;1.00;;;;;22.14;47.39;99870.94;5076734;28;46144;-53
2021/10/05 08:37:49;;;;;;;;;3.00;1.00;;;;;22.12;47.32;99849.09;5076229;28;45612;-51
2021/10/05 08:40:15;;;;;;;;;1.25;1.25;;;;;22.13;47.00;99874.53;5076727;28;45500;-51
2021/10/05 08:42:41;;;;;;;;;2.00;2.00;;;;;22.13;47.26;99863.16;5075473;28;45413;-52
2021/10/05 08:45:08;;;;;;;;;1.25;1.00;;;;;22.12;47.27;99861.47;5075001;28;47313;-48
2021/10/05 08:47:33;;;;;;;;;1.00;1.00;;;;;22.10;47.25;99861.59;5076440;28;45432;-50
2021/10/05 08:49:59;;;;;;;;;2.25;2.00;;;;;22.08;47.13;99860.88;5076453;28;45253;-52
2021/10/05 08:52:25;;;;;;;;;2.00;2.00;;;;;22.11;47.20;99857.16;5076922;28;45628;-48
2021/10/05 08:54:51;;;;;;;;;1.25;1.25;;;;;22.09;47.34;99857.28;5076708;28;45231;-49
2021/10/05 08:57:16;;;;;;;;;2.00;0.25;;;;;22.09;47.82;99862.56;5076327;28;45249;-46
2021/10/05 08:59:42;;;;;;;;;1.50;1.00;;;;;22.07;47.37;99838.91;5076383;28;45552;-47
2021/10/05 09:02:13;;;;;;;;;1.00;1.00;;;;;22.07;47.23;99859.19;5076536;28;45443;-48
2021/10/05 09:04:39;;;;;;;;;1.00;1.00;;;;;22.05;47.41;99898.06;5075971;28;46597;-47
2021/10/05 09:07:17;;;;;;;;;1.50;1.50;;;;;22.06;47.36;99963.06;5076193;28;45347;-52
2021/10/05 09:09:56;;;;;;;;;1.00;1.00;;;;;22.04;47.60;99957.91;5076271;28;45326;-50
2021/10/05 09:12:26;;;;;;;;;2.00;2.00;;;;;22.04;47.43;99964.97;5076592;28;45405;-52
2021/10/05 09:14:52;;;;;;;;;1.00;1.00;;;;;22.05;47.58;99969.28;5076224;27;46205;-53
2021/10/05 09:17:22;;;;;;;;;1.00;1.00;;;;;22.07;47.16;99975.31;5076544;27;45415;-50
2021/10/05 09:19:50;;;;;;;;;1.00;1.00;;;;;22.06;47.62;99970.97;5079751;28;45358;-51
2021/10/05 09:22:17;;;;;;;;;2.00;0.75;;;;;22.06;47.56;99966.53;5079843;28;45248;-49
2021/10/05 09:24:46;;;;;;;;;0.25;0.25;;;;;22.08;47.49;99966.44;5079443;28;45621;-49
2021/10/05 09:27:13;;;;;;;;;2.00;2.00;;;;;22.07;47.56;99967.38;5079331;27;45787;-51
2021/10/05 09:29:42;;;;;;;;;3.50;0.00;;;;;22.08;47.62;99963.78;5079669;28;45342;-50
2021/10/05 09:32:11;;;;;;;;;2.00;1.00;;;;;22.08;47.51;99961.16;5079666;28;45349;-53
2021/10/05 09:34:39;;;;;;;;;2.00;2.00;;;;;22.08;47.46;99964.63;5079338;28;46356;-50
2021/10/05 09:37:28;;;;;;;;;1.00;1.00;;;;;22.10;47.46;99969.81;5079246;28;45248;-53
2021/10/05 09:40:05;;;;;;;;;1.00;1.00;;;;;22.09;47.34;99976.03;5079760;28;45396;-51
2021/10/05 09:42:35;;;;;;;;;0.75;0.75;;;;;22.11;47.31;99982.00;5079681;28;45456;-54
2021/10/05 09:45:04;;;;;;;;;1.00;1.00;;;;;22.10;47.50;99983.00;5079066;28;46666;-54
2021/10/05 09:47:40;;;;;;;;;1.00;1.00;;;;;22.10;47.46;99990.91;5077879;28;45793;-53
2021/10/05 09:50:14;;;;;;;;;1.00;1.00;;;;;22.11;47.26;99997.00;5078069;28;45448;-49
2021/10/05 09:52:41;;;;;;;;;0.00;0.00;;;;;22.13;47.57;100005.66;5079373;28;45400;-48
2021/10/05 09:55:06;;;;;;;;;2.00;0.00;;;;;22.11;47.35;99997.84;5078923;28;46331;-51
2021/10/05 09:57:32;;;;;;;;;1.00;1.00;;;;;22.11;47.39;100000.47;5078798;28;45362;-49
2021/10/05 09:59:57;;;;;;;;;1.00;1.00;;;;;22.12;47.28;100003.97;5079144;28;45432;-53
2021/10/05 10:02:23;;;;;;;;;0.00;0.00;;;;;22.13;47.37;100014.41;5079279;28;45591;-48
2021/10/05 10:04:50;;;;;;;;;1.25;1.00;;;;;22.13;47.38;100003.84;5078824;28;46426;-54
2021/10/05 10:07:15;;;;;;;;;2.00;2.00;;;;;22.12;47.35;100004.81;5078815;28;45585;-52
2021/10/05 10:09:41;;;;;;;;;1.75;1.75;;;;;22.13;47.52;100018.88;5078886;28;45277;-52
2021/10/05 10:12:06;;;;;;;;;1.00;1.00;;;;;22.13;47.59;100027.59;5079046;28;45550;-52
2021/10/05 10:14:32;;;;;;;;;0.50;0.50;;;;;22.10;47.30;100030.50;5078663;28;45353;-48
2021/10/05 10:16:57;;;;;;;;;1.00;1.00;;;;;22.13;47.24;100039.97;5078877;28;45221;-52
2021/10/05 10:19:32;;;;;;;;;0.50;0.50;;;;;22.13;47.37;100032.88;5078681;28;45316;-50
2021/10/05 10:22:06;;;;;;;;;1.00;1.00;;;;;22.13;47.07;100045.25;5079055;28;45247;-52
2021/10/05 10:24:46;;;;;;;;;0.00;0.00;;;;;22.13;47.22;100051.34;5078641;28;45257;-51
2021/10/05 10:27:12;;;;;;;;;1.00;1.00;;;;;22.13;47.37;100043.44;5078500;28;45497;-53
2021/10/05 10:29:37;;;;;;;;;0.25;0.25;;;;;22.14;47.43;100049.56;5077604;28;45362;-52
2021/10/05 10:32:24;;;;;;;;;2.25;1.00;;;;;22.15;46.86;100052.09;5078592;28;45363;-53
2021/10/05 10:35:02;;;;;;;;;0.25;0.00;;;;;22.14;47.20;100058.31;5078155;27;46010;-52
2021/10/05 10:37:27;;;;;;;;;0.00;0.00;;;;;22.15;47.34;100067.09;5078722;28;45488;-52
2021/10/05 10:39:55;;;;;;;;;2.75;1.50;;;;;22.15;47.31;100067.09;5078436;28;45227;-52
2021/10/05 10:42:29;;;;;;;;;2.00;1.00;;;;;22.15;47.27;100070.56;5078647;28;45774;-53
2021/10/05 10:44:55;;;;;;;;;0.00;0.00;;;;;22.15;47.12;100077.66;5078170;28;45626;-49
2021/10/05 10:47:24;;;;;;;;;0.00;0.00;;;;;22.16;47.08;100085.44;5078257;28;45371;-49
2021/10/05 10:50:01;;;;;;;;;2.00;2.00;;;;;22.17;47.41;100088.91;5078276;28;45332;-48
2021/10/05 10:52:38;;;;;;;;;2.00;2.00;;;;;22.17;47.11;100097.69;5078843;28;45412;-51
2021/10/05 10:55:07;;;;;;;;;1.00;1.00;;;;;22.17;47.10;100089.78;5077979;28;46224;-54
2021/10/05 10:57:33;;;;;;;;;1.00;1.00;;;;;22.19;47.08;100092.28;5093635;27;45709;-52
2021/10/05 11:00:16;;;;;;;;;1.00;1.00;;;;;22.19;47.16;100089.66;5078272;28;45302;-48
2021/10/05 11:02:48;;;;;;;;;0.50;0.50;;;;;22.18;46.97;100096.75;5078212;28;45494;-46
2021/10/05 11:05:18;;;;;;;;;0.25;0.25;;;;;22.19;47.02;100106.34;5093522;27;46472;-48
2021/10/05 11:07:44;;;;;;;;;2.25;1.00;;;;;22.19;46.98;100111.63;5077577;28;45255;-47
2021/10/05 11:10:09;;;;;;;;;1.00;1.00;;;;;22.20;47.02;100110.66;5077888;28;45287;-50
2021/10/05 11:12:39;;;;;;;;;0.75;0.75;;;;;22.19;46.65;100116.91;5078092;28;45550;-49
2021/10/05 11:15:07;;;;;;;;;0.75;0.75;;;;;22.21;46.87;100119.41;5077715;28;45421;-49
2021/10/05 11:17:34;;;;;;;;;0.75;0.75;;;;;22.20;47.04;100115.94;5077672;28;45666;-51
2021/10/05 11:20:07;;;;;;;;;0.50;0.50;;;;;22.23;47.00;100128.91;5078164;28;45184;-47
2021/10/05 11:22:34;;;;;;;;;0.25;0.25;;;;;22.24;47.27;100119.19;5077924;28;45587;-49
2021/10/05 11:25:00;;;;;;;;;1.00;1.00;;;;;22.26;46.78;100127.84;5077777;27;45548;-52